Time;durP1;ratioP1;P1;durP2;ratioP2;P2;SDS_P1;SDS_P2;PMS_P1;PMS_P2;Temp;Humidity;BMP_temperature;BMP_pressure;BME280_temperature;BME280_humidity;BME280_pressure;Samples;Min_cycle;Max_cycle;Signal;HPM_P1;HPM_P2
2023/03/18 00:02:08;;;;;;;1.97;1.60;;;;;10.00;95558.00;;;;5052984;28;20309;-59
2023/03/18 00:04:36;;;;;;;1.33;1.23;;;;;9.80;95559.00;;;;5053235;28;20196;-59
2023/03/18 00:07:03;;;;;;;1.27;1.17;;;;;9.70;95561.00;;;;5053139;28;20199;-59
2023/03/18 00:09:31;;;;;;;0.60;0.60;;;;;9.60;95556.00;;;;5053084;28;20226;-59
2023/03/18 00:12:00;;;;;;;1.50;1.00;;;;;9.60;95569.00;;;;5052937;28;20192;-59
2023/03/18 00:14:28;;;;;;;0.60;0.60;;;;;9.50;95577.00;;;;5053202;28;20655;-59
2023/03/18 00:16:56;;;;;;;0.83;0.83;;;;;9.40;95577.00;;;;5052897;28;20196;-60
2023/03/18 00:19:24;;;;;;;0.60;0.60;;;;;9.40;95572.00;;;;5052763;28;20258;-60
2023/03/18 00:21:52;;;;;;;4.03;1.20;;;;;9.40;95575.00;;;;5052842;28;20770;-59
2023/03/18 00:24:19;;;;;;;2.37;1.43;;;;;9.40;95583.00;;;;5052824;28;20199;-60
2023/03/18 00:26:47;;;;;;;0.63;0.63;;;;;9.40;95588.00;;;;5052894;28;20584;-60
2023/03/18 00:29:15;;;;;;;0.60;0.60;;;;;9.40;95583.00;;;;5052975;28;20224;-60
2023/03/18 00:31:43;;;;;;;0.63;0.63;;;;;9.50;95584.00;;;;5052779;28;20663;-60
2023/03/18 00:34:11;;;;;;;0.70;0.70;;;;;9.50;95595.00;;;;5052732;28;20663;-60
2023/03/18 00:36:38;;;;;;;0.83;0.83;;;;;9.50;95592.00;;;;5052831;28;20196;-60
2023/03/18 00:39:06;;;;;;;0.60;0.60;;;;;9.50;95586.00;;;;5051545;28;20242;-59
2023/03/18 00:41:35;;;;;;;0.57;0.57;;;;;9.50;95598.00;;;;5052815;28;20211;-59
2023/03/18 00:44:03;;;;;;;0.60;0.60;;;;;9.40;95590.00;;;;5052286;28;20200;-59
2023/03/18 00:46:33;;;;;;;11.10;1.30;;;;;9.40;95605.00;;;;5053353;28;20246;-59
2023/03/18 00:49:03;;;;;;;0.73;0.73;;;;;9.50;95592.00;;;;5052546;28;20216;-61
2023/03/18 00:51:34;;;;;;;0.77;0.77;;;;;9.40;95588.00;;;;5052551;28;20192;-60
2023/03/18 00:54:05;;;;;;;0.70;0.70;;;;;9.40;95586.00;;;;5052799;28;20207;-59
2023/03/18 00:56:33;;;;;;;0.60;0.60;;;;;9.40;95592.00;;;;5051288;28;20192;-59
2023/03/18 00:59:01;;;;;;;0.70;0.70;;;;;9.40;95596.00;;;;5052277;28;20258;-60
2023/03/18 01:01:31;;;;;;;1.27;1.17;;;;;9.50;95599.00;;;;5052952;28;20196;-59
2023/03/18 01:03:58;;;;;;;0.60;0.60;;;;;9.30;95607.00;;;;5052460;28;20199;-60
2023/03/18 01:06:35;;;;;;;0.67;0.67;;;;;9.30;95605.00;;;;5053554;28;20195;-59
2023/03/18 01:09:04;;;;;;;0.70;0.70;;;;;9.20;95582.00;;;;5054667;28;20242;-59
2023/03/18 01:11:32;;;;;;;0.67;0.67;;;;;9.10;95593.00;;;;5055976;28;20279;-59
2023/03/18 01:13:59;;;;;;;0.70;0.70;;;;;9.00;95592.00;;;;5055917;28;20281;-59
2023/03/18 01:16:28;;;;;;;0.60;0.60;;;;;9.20;95606.00;;;;5056776;28;20192;-59
2023/03/18 01:18:57;;;;;;;0.63;0.63;;;;;9.00;95595.00;;;;5055796;28;20235;-59
2023/03/18 01:21:25;;;;;;;1.50;0.70;;;;;8.90;95597.00;;;;5055802;28;20188;-61
2023/03/18 01:23:53;;;;;;;3.83;1.63;;;;;8.90;95603.00;;;;5056021;28;20246;-59
2023/03/18 01:26:20;;;;;;;0.70;0.70;;;;;8.90;95597.00;;;;5055785;28;20234;-59
2023/03/18 01:28:48;;;;;;;0.63;0.63;;;;;8.80;95613.00;;;;5055632;28;20216;-59
2023/03/18 01:31:15;;;;;;;0.80;0.80;;;;;9.00;95600.00;;;;5056036;28;20188;-59
2023/03/18 01:33:43;;;;;;;0.60;0.60;;;;;8.90;95592.00;;;;5055502;28;20212;-59
2023/03/18 01:36:12;;;;;;;1.70;0.80;;;;;8.90;95584.00;;;;5055808;28;20200;-60
2023/03/18 01:38:41;;;;;;;0.80;0.80;;;;;8.90;95593.00;;;;5055634;28;20208;-59
2023/03/18 01:41:09;;;;;;;1.00;1.00;;;;;8.90;95583.00;;;;5055633;28;20199;-59
2023/03/18 01:43:40;;;;;;;1.03;1.03;;;;;8.80;95584.00;;;;5055635;28;20540;-59
2023/03/18 01:46:36;;;;;;;0.80;0.80;;;;;8.80;95592.00;;;;5054057;28;20295;-59
2023/03/18 01:49:06;;;;;;;0.60;0.60;;;;;8.80;95589.00;;;;5055522;28;20215;-59
2023/03/18 01:51:36;;;;;;;2.27;1.10;;;;;8.90;95584.00;;;;5055574;28;20666;-59
2023/03/18 01:54:06;;;;;;;1.37;1.20;;;;;8.80;95591.00;;;;5055136;28;20216;-60
2023/03/18 01:56:37;;;;;;;1.17;1.10;;;;;8.80;95592.00;;;;5055679;28;20238;-59
2023/03/18 01:59:06;;;;;;;1.47;1.37;;;;;8.80;95588.00;;;;5055000;28;20228;-59
2023/03/18 02:01:39;;;;;;;0.53;0.53;;;;;8.80;95582.00;;;;5055070;28;20243;-59
2023/03/18 02:04:10;;;;;;;0.90;0.90;;;;;8.50;95577.00;;;;5053755;28;20208;-59
2023/03/18 02:06:39;;;;;;;3.40;1.30;;;;;8.40;95584.00;;;;5055248;28;20267;-59
2023/03/18 02:09:07;;;;;;;0.57;0.57;;;;;8.50;95577.00;;;;5054850;28;20207;-59
2023/03/18 02:11:38;;;;;;;0.70;0.70;;;;;8.50;95572.00;;;;5054881;28;20257;-60
2023/03/18 02:14:06;;;;;;;0.60;0.60;;;;;8.40;95573.00;;;;5055325;28;20212;-60
2023/03/18 02:16:42;;;;;;;2.30;1.37;;;;;8.50;95581.00;;;;5054760;28;20708;-59
2023/03/18 02:19:15;;;;;;;0.73;0.73;;;;;8.70;95580.00;;;;5054977;28;20211;-59
2023/03/18 02:21:53;;;;;;;0.80;0.80;;;;;8.60;95577.00;;;;5054980;28;20207;-59
2023/03/18 02:24:32;;;;;;;0.70;0.70;;;;;8.50;95582.00;;;;5055206;28;20177;-60
2023/03/18 02:27:01;;;;;;;0.80;0.80;;;;;8.40;95584.00;;;;5054857;28;20180;-59
2023/03/18 02:29:35;;;;;;;0.80;0.80;;;;;8.40;95585.00;;;;5054507;28;20216;-59
2023/03/18 02:32:05;;;;;;;0.80;0.80;;;;;8.40;95586.00;;;;5054835;28;20550;-60
2023/03/18 02:34:34;;;;;;;0.80;0.80;;;;;8.40;95576.00;;;;5054127;28;20736;-59
2023/03/18 02:37:02;;;;;;;0.80;0.80;;;;;8.40;95582.00;;;;5054575;28;20555;-60
2023/03/18 02:39:30;;;;;;;0.60;0.60;;;;;8.20;95582.00;;;;5054475;28;20212;-59
2023/03/18 02:41:58;;;;;;;1.70;1.37;;;;;8.10;95583.00;;;;5054477;28;20564;-59
2023/03/18 02:44:25;;;;;;;1.30;1.20;;;;;8.10;95581.00;;;;5054134;28;20188;-59
2023/03/18 02:46:59;;;;;;;0.60;0.60;;;;;8.10;95576.00;;;;5054440;28;20566;-59
2023/03/18 02:49:27;;;;;;;0.80;0.80;;;;;8.10;95586.00;;;;5053997;28;20219;-59
2023/03/18 02:51:55;;;;;;;0.50;0.50;;;;;8.10;95593.00;;;;5054258;28;20192;-59
2023/03/18 02:54:25;;;;;;;0.63;0.63;;;;;8.10;95583.00;;;;5054157;28;20550;-60
2023/03/18 02:56:53;;;;;;;2.33;1.20;;;;;8.10;95589.00;;;;5053386;28;20728;-59
2023/03/18 02:59:21;;;;;;;0.60;0.60;;;;;8.10;95592.00;;;;5052285;28;20707;-59
2023/03/18 03:01:50;;;;;;;0.70;0.70;;;;;8.20;95600.00;;;;5053706;28;20253;-60
2023/03/18 03:04:22;;;;;;;0.90;0.90;;;;;8.20;95600.00;;;;5054006;28;20191;-60
2023/03/18 03:06:51;;;;;;;0.70;0.70;;;;;8.00;95597.00;;;;5053969;28;20686;-60
2023/03/18 03:09:20;;;;;;;0.60;0.60;;;;;7.80;95601.00;;;;5053817;28;20307;-60
2023/03/18 03:11:48;;;;;;;0.90;0.90;;;;;7.80;95601.00;;;;5053619;28;20222;-59
2023/03/18 03:14:17;;;;;;;0.83;0.83;;;;;7.70;95608.00;;;;5053528;28;20314;-59
2023/03/18 03:16:45;;;;;;;1.03;1.03;;;;;7.60;95610.00;;;;5053599;28;20273;-60
2023/03/18 03:19:12;;;;;;;0.90;0.90;;;;;7.60;95600.00;;;;5053700;28;20241;-60
2023/03/18 03:21:42;;;;;;;0.50;0.50;;;;;7.60;95597.00;;;;5053513;28;20191;-60
2023/03/18 03:24:10;;;;;;;0.50;0.50;;;;;7.50;95602.00;;;;5053448;28;20675;-60
2023/03/18 03:26:37;;;;;;;0.67;0.67;;;;;7.60;95604.00;;;;5053353;28;20245;-60
2023/03/18 03:29:05;;;;;;;0.83;0.83;;;;;7.70;95599.00;;;;5052882;28;20223;-59
2023/03/18 03:31:33;;;;;;;1.70;1.60;;;;;7.60;95609.00;;;;5053333;28;20206;-60
2023/03/18 03:34:01;;;;;;;0.80;0.80;;;;;7.70;95606.00;;;;5051934;28;20220;-60
2023/03/18 03:36:29;;;;;;;1.13;1.00;;;;;7.80;95601.00;;;;5053184;28;20215;-60
2023/03/18 03:38:57;;;;;;;0.60;0.60;;;;;7.80;95609.00;;;;5053363;28;20219;-60
2023/03/18 03:41:25;;;;;;;0.60;0.60;;;;;7.80;95605.00;;;;5053232;28;20247;-60
2023/03/18 03:43:53;;;;;;;0.80;0.80;;;;;7.90;95604.00;;;;5053160;28;20720;-59
2023/03/18 03:46:20;;;;;;;0.60;0.60;;;;;7.90;95605.00;;;;5053189;28;20199;-60
2023/03/18 03:48:48;;;;;;;0.70;0.70;;;;;7.80;95613.00;;;;5053090;28;20212;-60
2023/03/18 03:51:16;;;;;;;1.60;1.50;;;;;7.70;95609.00;;;;5053631;28;20246;-60
2023/03/18 03:53:44;;;;;;;0.93;0.93;;;;;7.60;95607.00;;;;5052963;28;20274;-60
2023/03/18 03:56:14;;;;;;;0.50;0.50;;;;;7.50;95604.00;;;;5053085;28;20681;-59
2023/03/18 03:58:41;;;;;;;0.70;0.70;;;;;7.40;95602.00;;;;5053254;28;20273;-60
2023/03/18 04:01:09;;;;;;;0.60;0.60;;;;;7.40;95594.00;;;;5053332;28;20179;-59
2023/03/18 04:03:36;;;;;;;0.70;0.70;;;;;7.50;95608.00;;;;5052064;28;20200;-59
2023/03/18 04:06:05;;;;;;;0.97;0.97;;;;;7.50;95613.00;;;;5053362;28;20203;-59
2023/03/18 04:08:32;;;;;;;0.63;0.63;;;;;7.40;95612.00;;;;5052906;28;20230;-60
2023/03/18 04:11:02;;;;;;;0.70;0.70;;;;;7.40;95618.00;;;;5052978;28;20671;-59
2023/03/18 04:13:30;;;;;;;0.70;0.70;;;;;7.40;95618.00;;;;5052813;28;20216;-59
2023/03/18 04:15:58;;;;;;;1.00;1.00;;;;;7.40;95620.00;;;;5053409;28;20193;-59
2023/03/18 04:18:26;;;;;;;1.23;1.13;;;;;7.40;95617.00;;;;5053094;28;20214;-60
2023/03/18 04:20:54;;;;;;;0.63;0.63;;;;;7.40;95611.00;;;;5052951;28;20199;-60
2023/03/18 04:23:21;;;;;;;0.53;0.53;;;;;7.30;95608.00;;;;5052837;28;20192;-59
2023/03/18 04:25:49;;;;;;;0.80;0.80;;;;;7.30;95616.00;;;;5053003;28;20188;-59
2023/03/18 04:28:16;;;;;;;0.90;0.90;;;;;7.20;95610.00;;;;5051387;28;20725;-59
2023/03/18 04:30:45;;;;;;;0.50;0.50;;;;;7.10;95608.00;;;;5053019;28;20192;-59
2023/03/18 04:33:13;;;;;;;0.60;0.60;;;;;7.10;95605.00;;;;5051478;28;20215;-59
2023/03/18 04:35:41;;;;;;;0.70;0.70;;;;;6.90;95612.00;;;;5051592;28;20718;-59
2023/03/18 04:38:09;;;;;;;0.70;0.70;;;;;6.90;95605.00;;;;5051308;28;20238;-59
2023/03/18 04:40:36;;;;;;;1.37;1.27;;;;;6.80;95595.00;;;;5051431;28;20713;-59
2023/03/18 04:43:03;;;;;;;0.80;0.80;;;;;6.90;95570.00;;;;5055672;28;20667;-61
2023/03/18 04:45:31;;;;;;;1.03;1.03;;;;;6.90;95608.00;;;;5056742;28;20188;-59
2023/03/18 04:48:00;;;;;;;1.00;1.00;;;;;6.70;95615.00;;;;5056425;28;20220;-58
2023/03/18 04:50:28;;;;;;;0.80;0.80;;;;;6.80;95622.00;;;;5055193;28;20223;-59
2023/03/18 04:52:56;;;;;;;1.07;1.03;;;;;6.80;95615.00;;;;5056673;28;20501;-59
2023/03/18 04:55:24;;;;;;;0.90;0.90;;;;;6.80;95613.00;;;;5056335;28;20277;-59
2023/03/18 04:57:51;;;;;;;8.57;1.27;;;;;6.80;95618.00;;;;5056530;28;20200;-59
2023/03/18 05:00:21;;;;;;;0.90;0.90;;;;;6.70;95621.00;;;;5054847;28;20208;-59
2023/03/18 05:02:49;;;;;;;2.03;1.43;;;;;6.70;95617.00;;;;5056194;28;20192;-58
2023/03/18 05:05:21;;;;;;;0.60;0.60;;;;;6.70;95614.00;;;;5054917;28;20679;-59
2023/03/18 05:07:48;;;;;;;1.27;1.27;;;;;6.70;95616.00;;;;5054718;28;20200;-59
2023/03/18 05:10:16;;;;;;;1.40;1.30;;;;;6.70;95610.00;;;;5056281;28;20220;-59
2023/03/18 05:12:43;;;;;;;0.93;0.93;;;;;6.50;95609.00;;;;5056102;28;20188;-59
2023/03/18 05:15:13;;;;;;;6.90;1.53;;;;;6.50;95606.00;;;;5055920;28;20294;-59
2023/03/18 05:17:40;;;;;;;0.97;0.97;;;;;6.40;95617.00;;;;5055860;28;20245;-60
2023/03/18 05:20:10;;;;;;;3.43;1.40;;;;;6.50;95620.00;;;;5054565;28;20206;-60
2023/03/18 05:22:39;;;;;;;1.37;1.27;;;;;6.40;95626.00;;;;5055857;28;20227;-60
2023/03/18 05:25:09;;;;;;;0.97;0.97;;;;;6.50;95620.00;;;;5055808;28;20666;-60
2023/03/18 05:27:37;;;;;;;1.00;1.00;;;;;6.40;95620.00;;;;5055885;28;20547;-60
2023/03/18 05:30:05;;;;;;;0.80;0.80;;;;;6.40;95621.00;;;;5055690;28;20208;-60
2023/03/18 05:32:33;;;;;;;0.80;0.80;;;;;6.40;95616.00;;;;5055699;28;20215;-60
2023/03/18 05:35:00;;;;;;;0.80;0.80;;;;;6.40;95620.00;;;;5055757;28;20227;-60
2023/03/18 05:37:28;;;;;;;1.37;1.30;;;;;6.40;95626.00;;;;5054335;28;20196;-60
2023/03/18 05:39:57;;;;;;;0.73;0.73;;;;;6.30;95628.00;;;;5055443;28;20215;-60
2023/03/18 05:42:24;;;;;;;0.80;0.80;;;;;6.30;95627.00;;;;5054240;28;20207;-59
2023/03/18 05:44:53;;;;;;;0.73;0.73;;;;;6.30;95627.00;;;;5055451;28;20651;-58
2023/03/18 05:47:20;;;;;;;0.50;0.50;;;;;6.20;95636.00;;;;5055316;28;20204;-58
2023/03/18 05:49:48;;;;;;;0.60;0.60;;;;;6.20;95620.00;;;;5055183;28;20211;-59
2023/03/18 05:52:16;;;;;;;0.70;0.70;;;;;6.20;95629.00;;;;5054832;28;20200;-59
2023/03/18 05:54:43;;;;;;;0.60;0.60;;;;;6.30;95629.00;;;;5055380;28;20246;-58
2023/03/18 05:57:14;;;;;;;0.97;0.97;;;;;6.30;95633.00;;;;5053996;28;20192;-59
2023/03/18 05:59:42;;;;;;;0.93;0.73;;;;;6.20;95627.00;;;;5054914;28;20796;-60
2023/03/18 06:02:10;;;;;;;1.77;0.90;;;;;6.30;95629.00;;;;5055349;28;20278;-59
2023/03/18 06:04:38;;;;;;;1.00;1.00;;;;;6.00;95634.00;;;;5055633;28;20192;-58
2023/03/18 06:07:06;;;;;;;0.70;0.70;;;;;5.90;95633.00;;;;5054821;28;20287;-59
2023/03/18 06:09:33;;;;;;;1.40;0.90;;;;;6.10;95635.00;;;;5054917;28;20208;-59
2023/03/18 06:12:02;;;;;;;0.87;0.87;;;;;5.90;95638.00;;;;5054884;28;20188;-60
2023/03/18 06:14:31;;;;;;;0.70;0.70;;;;;6.00;95640.00;;;;5054755;28;20216;-59
2023/03/18 06:16:58;;;;;;;0.90;0.90;;;;;6.10;95635.00;;;;5054753;28;20234;-60
2023/03/18 06:19:27;;;;;;;0.70;0.70;;;;;6.00;95627.00;;;;5054877;28;20326;-60
2023/03/18 06:21:54;;;;;;;1.20;1.10;;;;;6.00;95630.00;;;;5054779;28;20235;-60
2023/03/18 06:24:22;;;;;;;0.80;0.80;;;;;5.90;95639.00;;;;5055118;28;20191;-60
2023/03/18 06:26:50;;;;;;;0.80;0.80;;;;;6.00;95642.00;;;;5055145;28;20199;-60
2023/03/18 06:29:18;;;;;;;0.90;0.90;;;;;5.90;95640.00;;;;5054528;28;20570;-57
2023/03/18 06:31:47;;;;;;;1.10;1.10;;;;;6.10;95642.00;;;;5054463;28;20195;-60
2023/03/18 06:34:15;;;;;;;1.17;1.10;;;;;6.20;95637.00;;;;5053123;28;20319;-60
2023/03/18 06:36:42;;;;;;;0.73;0.73;;;;;5.90;95638.00;;;;5054376;28;20199;-62
2023/03/18 06:39:10;;;;;;;0.60;0.60;;;;;6.00;95634.00;;;;5054499;28;20222;-60
2023/03/18 06:41:37;;;;;;;0.90;0.90;;;;;6.20;95647.00;;;;5054583;28;20261;-59
2023/03/18 06:44:05;;;;;;;0.60;0.60;;;;;6.20;95634.00;;;;5054221;28;20199;-59
2023/03/18 06:46:33;;;;;;;0.60;0.60;;;;;6.20;95632.00;;;;5054262;28;20196;-59
2023/03/18 06:49:02;;;;;;;0.87;0.87;;;;;6.40;95628.00;;;;5053991;28;20687;-60
2023/03/18 06:51:29;;;;;;;1.30;1.30;;;;;6.60;95633.00;;;;5053005;28;20226;-59
2023/03/18 06:53:56;;;;;;;1.17;1.17;;;;;6.60;95641.00;;;;5054044;28;20199;-60
2023/03/18 06:56:24;;;;;;;0.60;0.60;;;;;6.70;95636.00;;;;5054132;28;20574;-60
2023/03/18 06:58:52;;;;;;;23.87;1.47;;;;;6.80;95635.00;;;;5052600;28;20560;-62
2023/03/18 07:01:19;;;;;;;0.70;0.70;;;;;6.90;95628.00;;;;5053894;28;20679;-59
2023/03/18 07:03:48;;;;;;;0.83;0.83;;;;;7.00;95635.00;;;;5053434;28;20196;-59
2023/03/18 07:06:17;;;;;;;0.70;0.70;;;;;7.10;95633.00;;;;5052526;28;20192;-59
2023/03/18 07:08:46;;;;;;;6.13;0.93;;;;;7.10;95646.00;;;;5053876;28;20254;-58
2023/03/18 07:11:13;;;;;;;0.60;0.60;;;;;7.00;95641.00;;;;5053714;28;20718;-59
2023/03/18 07:13:41;;;;;;;0.80;0.80;;;;;7.00;95644.00;;;;5052350;28;20200;-59
2023/03/18 07:16:08;;;;;;;2.90;1.03;;;;;7.20;95644.00;;;;5053845;28;20572;-59
2023/03/18 07:18:36;;;;;;;0.93;0.93;;;;;7.30;95637.00;;;;5053467;28;20222;-59
2023/03/18 07:21:04;;;;;;;0.67;0.67;;;;;7.30;95634.00;;;;5053482;28;20200;-59
2023/03/18 07:23:33;;;;;;;1.67;1.63;;;;;7.60;95638.00;;;;5054462;28;20287;-59
2023/03/18 07:26:00;;;;;;;1.67;1.57;;;;;7.70;95641.00;;;;5053482;28;20196;-59
2023/03/18 07:28:28;;;;;;;0.60;0.60;;;;;7.70;95647.00;;;;5053176;28;20215;-59
2023/03/18 07:30:55;;;;;;;0.60;0.60;;;;;7.90;95646.00;;;;5054063;28;20204;-59
2023/03/18 07:33:23;;;;;;;0.70;0.70;;;;;8.00;95644.00;;;;5053512;28;20709;-59
2023/03/18 07:35:50;;;;;;;0.83;0.83;;;;;8.10;95642.00;;;;5051906;28;20255;-60
2023/03/18 07:38:18;;;;;;;1.00;0.97;;;;;8.30;95643.00;;;;5053282;28;20238;-60
2023/03/18 07:40:47;;;;;;;0.80;0.80;;;;;8.50;95648.00;;;;5053388;28;20193;-60
2023/03/18 07:43:17;;;;;;;1.37;1.37;;;;;8.60;95650.00;;;;5053527;28;20277;-61
2023/03/18 07:45:47;;;;;;;1.17;1.17;;;;;8.80;95650.00;;;;5053418;28;20188;-61
2023/03/18 07:48:15;;;;;;;0.70;0.70;;;;;8.90;95653.00;;;;5053082;28;20719;-62
2023/03/18 07:50:42;;;;;;;0.50;0.50;;;;;9.10;95657.00;;;;5052984;28;20192;-60
2023/03/18 07:53:13;;;;;;;0.70;0.70;;;;;9.30;95657.00;;;;5051838;28;20200;-61
2023/03/18 07:55:40;;;;;;;1.37;1.37;;;;;9.40;95654.00;;;;5053197;28;20234;-60
2023/03/18 07:58:09;;;;;;;0.60;0.60;;;;;9.60;95653.00;;;;5053144;28;20629;-61
2023/03/18 08:00:37;;;;;;;0.90;0.90;;;;;9.80;95651.00;;;;5053277;28;20192;-60
2023/03/18 08:03:04;;;;;;;0.63;0.63;;;;;10.00;95655.00;;;;5051736;28;20781;-60
2023/03/18 08:05:32;;;;;;;0.60;0.60;;;;;10.00;95651.00;;;;5053276;28;20223;-60
2023/03/18 08:08:01;;;;;;;0.87;0.87;;;;;10.10;95640.00;;;;5052896;28;20220;-61
2023/03/18 08:10:28;;;;;;;0.70;0.70;;;;;10.20;95655.00;;;;5052942;28;20330;-60
2023/03/18 08:12:56;;;;;;;0.77;0.77;;;;;10.30;95653.00;;;;5053346;28;20678;-61
2023/03/18 08:15:25;;;;;;;0.60;0.60;;;;;10.50;95654.00;;;;5054057;28;20216;-60
2023/03/18 08:17:53;;;;;;;0.60;0.60;;;;;10.60;95655.00;;;;5056419;28;20196;-61
2023/03/18 08:20:21;;;;;;;0.63;0.63;;;;;10.70;95656.00;;;;5057032;28;20682;-60
2023/03/18 08:22:49;;;;;;;1.23;1.23;;;;;10.90;95650.00;;;;5057478;28;20271;-60
2023/03/18 08:25:17;;;;;;;0.80;0.80;;;;;11.10;95658.00;;;;5056882;28;20241;-58
2023/03/18 08:27:45;;;;;;;0.57;0.57;;;;;11.30;95659.00;;;;5057024;28;20660;-61
2023/03/18 08:30:13;;;;;;;0.67;0.67;;;;;11.40;95659.00;;;;5055524;28;20690;-60
2023/03/18 08:32:43;;;;;;;0.50;0.50;;;;;11.60;95653.00;;;;5057006;28;20671;-58
2023/03/18 08:35:11;;;;;;;0.50;0.50;;;;;11.90;95648.00;;;;5056702;28;20306;-59
2023/03/18 08:37:39;;;;;;;0.53;0.53;;;;;11.90;95640.00;;;;5056582;28;20203;-59
2023/03/18 08:40:08;;;;;;;0.70;0.70;;;;;12.00;95649.00;;;;5056719;28;20282;-59
2023/03/18 08:42:36;;;;;;;0.73;0.73;;;;;12.10;95639.00;;;;5056573;28;20286;-60
2023/03/18 08:45:04;;;;;;;0.70;0.70;;;;;12.40;95640.00;;;;5055292;28;20192;-59
2023/03/18 08:47:31;;;;;;;0.60;0.60;;;;;12.30;95642.00;;;;5056454;28;20667;-60
2023/03/18 08:50:00;;;;;;;0.67;0.67;;;;;12.70;95646.00;;;;5056333;28;20223;-59
2023/03/18 08:52:28;;;;;;;0.83;0.83;;;;;12.70;95657.00;;;;5056374;28;20192;-59
2023/03/18 08:54:56;;;;;;;0.67;0.67;;;;;12.80;95649.00;;;;5056300;28;20207;-59
2023/03/18 08:57:26;;;;;;;0.77;0.77;;;;;13.00;95655.00;;;;5056301;28;20199;-59
2023/03/18 08:59:54;;;;;;;1.10;0.80;;;;;13.10;95651.00;;;;5055939;28;20247;-59
2023/03/18 09:02:21;;;;;;;0.50;0.50;;;;;13.20;95645.00;;;;5056208;28;20198;-59
2023/03/18 09:04:49;;;;;;;0.50;0.50;;;;;13.30;95654.00;;;;5056450;28;20215;-59
2023/03/18 09:07:18;;;;;;;1.10;1.00;;;;;13.40;95650.00;;;;5056139;28;20273;-59
2023/03/18 09:09:45;;;;;;;1.60;0.70;;;;;13.60;95639.00;;;;5056451;28;20270;-59
2023/03/18 09:12:13;;;;;;;4.23;0.87;;;;;13.70;95636.00;;;;5056005;28;20200;-60
2023/03/18 09:14:42;;;;;;;0.87;0.87;;;;;13.60;95640.00;;;;5056268;28;20188;-59
2023/03/18 09:17:10;;;;;;;0.70;0.70;;;;;13.80;95640.00;;;;5056028;28;20220;-59
2023/03/18 09:19:37;;;;;;;0.80;0.80;;;;;13.80;95642.00;;;;5055889;28;20247;-59
2023/03/18 09:22:05;;;;;;;0.70;0.70;;;;;13.80;95641.00;;;;5056292;28;20196;-60
2023/03/18 09:24:34;;;;;;;0.90;0.90;;;;;13.80;95645.00;;;;5055779;28;20192;-59
2023/03/18 09:27:01;;;;;;;0.50;0.50;;;;;13.40;95642.00;;;;5055042;28;20188;-59
2023/03/18 09:29:29;;;;;;;0.60;0.60;;;;;13.50;95639.00;;;;5055660;28;20337;-59
2023/03/18 09:31:57;;;;;;;0.70;0.70;;;;;13.90;95633.00;;;;5055668;28;20218;-59
2023/03/18 09:34:25;;;;;;;0.80;0.80;;;;;14.20;95631.00;;;;5055528;28;20241;-60
2023/03/18 09:36:52;;;;;;;1.17;1.17;;;;;14.70;95640.00;;;;5055532;28;20208;-59
2023/03/18 09:39:21;;;;;;;0.83;0.83;;;;;14.10;95644.00;;;;5055468;28;20204;-59
2023/03/18 09:42:02;;;;;;;0.50;0.50;;;;;14.00;95634.00;;;;5055274;28;20199;-59
2023/03/18 09:44:33;;;;;;;0.70;0.70;;;;;13.90;95627.00;;;;5055396;28;20184;-60
2023/03/18 09:47:46;;;;;;;0.60;0.60;;;;;14.60;95621.00;;;;5055354;28;20181;-59
2023/03/18 09:50:27;;;;;;;0.83;0.83;;;;;14.40;95627.00;;;;5054133;28;20630;-59
2023/03/18 09:53:05;;;;;;;0.60;0.60;;;;;15.00;95627.00;;;;5055585;28;20194;-59
2023/03/18 09:55:40;;;;;;;0.93;0.93;;;;;15.30;95626.00;;;;5053714;28;20299;-60
2023/03/18 09:58:18;;;;;;;0.40;0.40;;;;;15.30;95622.00;;;;5054949;28;20286;-60
2023/03/18 10:00:46;;;;;;;0.63;0.63;;;;;15.00;95617.00;;;;5055736;28;20181;-59
2023/03/18 10:03:20;;;;;;;0.60;0.60;;;;;15.30;95616.00;;;;5055118;28;20655;-60
2023/03/18 10:05:51;;;;;;;0.73;0.73;;;;;15.70;95622.00;;;;5054996;28;20464;-60
2023/03/18 10:08:31;;;;;;;0.50;0.50;;;;;15.80;95620.00;;;;5055080;28;20242;-60
2023/03/18 10:11:03;;;;;;;1.00;1.00;;;;;15.90;95623.00;;;;5055413;28;20646;-60
2023/03/18 10:13:38;;;;;;;0.50;0.50;;;;;15.90;95626.00;;;;5055379;28;20188;-60
2023/03/18 10:16:09;;;;;;;0.50;0.50;;;;;16.00;95625.00;;;;5055088;28;20200;-60
2023/03/18 10:18:38;;;;;;;0.50;0.50;;;;;16.00;95627.00;;;;5054549;28;20227;-60
2023/03/18 10:21:21;;;;;;;0.80;0.80;;;;;16.10;95631.00;;;;5054544;28;20685;-60
2023/03/18 10:23:59;;;;;;;0.70;0.70;;;;;15.80;95625.00;;;;5054580;28;20192;-59
2023/03/18 10:26:32;;;;;;;0.60;0.60;;;;;16.20;95632.00;;;;5054962;28;20587;-60
2023/03/18 10:29:15;;;;;;;0.50;0.50;;;;;16.10;95618.00;;;;5054568;28;20246;-59
2023/03/18 10:31:57;;;;;;;0.60;0.60;;;;;16.20;95615.00;;;;5054805;28;20183;-60
2023/03/18 10:34:33;;;;;;;0.60;0.60;;;;;16.40;95619.00;;;;5054639;28;20187;-60
2023/03/18 10:37:06;;;;;;;0.60;0.60;;;;;16.40;95622.00;;;;5054977;28;20203;-60
2023/03/18 10:39:36;;;;;;;0.60;0.60;;;;;16.10;95625.00;;;;5053247;28;20223;-60
2023/03/18 10:42:18;;;;;;;0.97;0.97;;;;;16.10;95627.00;;;;5054587;28;20555;-59
2023/03/18 10:44:48;;;;;;;0.40;0.40;;;;;15.90;95620.00;;;;5054355;28;20187;-60
2023/03/18 10:47:19;;;;;;;0.40;0.40;;;;;15.70;95623.00;;;;5054446;28;20644;-60
2023/03/18 10:49:57;;;;;;;4.23;1.00;;;;;15.30;95610.00;;;;5054151;28;20227;-60
2023/03/18 10:52:33;;;;;;;1.10;1.10;;;;;15.80;95611.00;;;;5054449;28;20184;-59
2023/03/18 10:55:00;;;;;;;0.40;0.40;;;;;15.80;95612.00;;;;5054071;28;20188;-60
2023/03/18 10:57:28;;;;;;;0.77;0.77;;;;;16.10;95605.00;;;;5054222;28;20212;-60
2023/03/18 10:59:57;;;;;;;0.60;0.60;;;;;16.60;95611.00;;;;5053895;28;20220;-60
2023/03/18 11:02:31;;;;;;;0.63;0.63;;;;;16.60;95606.00;;;;5053960;28;20203;-60
2023/03/18 11:05:03;;;;;;;4.63;1.03;;;;;16.80;95605.00;;;;5054584;28;20180;-60
2023/03/18 11:07:32;;;;;;;0.80;0.80;;;;;16.30;95610.00;;;;5054325;28;20570;-59
2023/03/18 11:10:13;;;;;;;1.00;1.00;;;;;16.50;95597.00;;;;5053727;28;20215;-59
2023/03/18 11:12:42;;;;;;;0.53;0.53;;;;;16.40;95596.00;;;;5053999;28;20188;-60
2023/03/18 11:15:13;;;;;;;0.50;0.50;;;;;16.80;95591.00;;;;5053922;28;20545;-60
2023/03/18 11:17:42;;;;;;;0.40;0.40;;;;;16.80;95598.00;;;;5053771;28;20542;-60
2023/03/18 11:20:23;;;;;;;0.50;0.50;;;;;16.60;95605.00;;;;5054048;28;20196;-60
2023/03/18 11:22:54;;;;;;;0.80;0.80;;;;;16.20;95611.00;;;;5053979;28;20245;-60
2023/03/18 11:25:25;;;;;;;0.50;0.50;;;;;16.50;95582.00;;;;5054389;28;20528;-60
2023/03/18 11:27:57;;;;;;;3.17;0.87;;;;;16.40;95599.00;;;;5053772;28;20204;-60
2023/03/18 11:30:28;;;;;;;0.93;0.93;;;;;16.00;95595.00;;;;5053517;28;20180;-60
2023/03/18 11:32:59;;;;;;;0.50;0.50;;;;;16.60;95592.00;;;;5053415;28;20180;-60
2023/03/18 11:35:36;;;;;;;0.50;0.50;;;;;16.30;95595.00;;;;5052183;28;20188;-60
2023/03/18 11:38:05;;;;;;;0.97;0.97;;;;;16.20;95598.00;;;;5053618;28;20634;-58
2023/03/18 11:40:33;;;;;;;0.43;0.43;;;;;16.80;95597.00;;;;5053260;28;20733;-59
2023/03/18 11:43:03;;;;;;;0.60;0.60;;;;;17.20;95592.00;;;;5053710;28;20235;-58
2023/03/18 11:45:55;;;;;;;0.50;0.50;;;;;17.10;95607.00;;;;5053446;28;20195;-59
2023/03/18 11:48:34;;;;;;;1.90;1.67;;;;;16.90;95598.00;;;;5051962;28;20227;-59
2023/03/18 11:51:18;;;;;;;0.60;0.60;;;;;16.60;95596.00;;;;5052850;28;20212;-59
2023/03/18 11:54:07;;;;;;;0.60;0.60;;;;;16.50;95587.00;;;;5052008;28;20184;-59
2023/03/18 11:56:39;;;;;;;0.50;0.50;;;;;16.50;95584.00;;;;5053044;28;20254;-60
2023/03/18 11:59:22;;;;;;;0.70;0.70;;;;;16.50;95577.00;;;;5052889;28;20590;-59
2023/03/18 12:02:03;;;;;;;2.20;0.83;;;;;17.30;95577.00;;;;5053249;28;20280;-60
2023/03/18 12:04:45;;;;;;;0.90;0.90;;;;;16.50;95573.00;;;;5053278;28;20677;-60
2023/03/18 12:07:29;;;;;;;0.60;0.60;;;;;17.20;95562.00;;;;5053570;28;20180;-60
2023/03/18 12:10:04;;;;;;;0.90;0.90;;;;;16.80;95581.00;;;;5053161;28;20208;-59
2023/03/18 12:12:45;;;;;;;0.73;0.73;;;;;16.40;95573.00;;;;5051731;28;20242;-59
2023/03/18 12:15:21;;;;;;;0.50;0.50;;;;;17.40;95565.00;;;;5051936;28;20203;-60
2023/03/18 12:17:58;;;;;;;0.50;0.50;;;;;17.40;95571.00;;;;5053037;28;20204;-59
2023/03/18 12:20:48;;;;;;;0.60;0.60;;;;;17.90;95570.00;;;;5051815;28;20237;-59
2023/03/18 12:23:33;;;;;;;1.80;0.80;;;;;17.00;95564.00;;;;5053149;28;20531;-59
2023/03/18 12:26:05;;;;;;;0.70;0.70;;;;;17.80;95566.00;;;;5053606;28;20576;-59
2023/03/18 12:28:53;;;;;;;0.50;0.50;;;;;18.00;95574.00;;;;5051505;28;20220;-59
2023/03/18 12:31:42;;;;;;;0.50;0.50;;;;;18.90;95559.00;;;;5053544;28;20268;-61
2023/03/18 12:34:21;;;;;;;0.97;0.97;;;;;18.10;95570.00;;;;5052768;28;20184;-62
2023/03/18 12:37:06;;;;;;;0.70;0.70;;;;;18.40;95564.00;;;;5051496;28;20208;-60
2023/03/18 12:39:55;;;;;;;0.60;0.60;;;;;18.80;95562.00;;;;5052815;28;20220;-60